sensor_id;sensor_type;location;lat;lon;timestamp;P1;durP1;ratioP1;P2;durP2;ratioP2
52618;SDS011;38513;53.234;6.568;2023-02-27T00:01:07;10.32;;;3.78;;
52618;SDS011;38513;53.234;6.568;2023-02-27T00:03:33;11.57;;;4.00;;
52618;SDS011;38513;53.234;6.568;2023-02-27T00:05:59;13.13;;;5.35;;
52618;SDS011;38513;53.234;6.568;2023-02-27T00:08:25;18.13;;;7.72;;
52618;SDS011;38513;53.234;6.568;2023-02-27T00:10:51;19.88;;;9.80;;
52618;SDS011;38513;53.234;6.568;2023-02-27T00:13:18;16.10;;;7.28;;
52618;SDS011;38513;53.234;6.568;2023-02-27T00:15:45;15.93;;;7.40;;
52618;SDS011;38513;53.234;6.568;2023-02-27T00:18:11;18.10;;;8.70;;
52618;SDS011;38513;53.234;6.568;2023-02-27T00:20:37;14.07;;;6.57;;
52618;SDS011;38513;53.234;6.568;2023-02-27T00:23:04;14.23;;;5.75;;
52618;SDS011;38513;53.234;6.568;2023-02-27T00:25:31;15.05;;;6.88;;
52618;SDS011;38513;53.234;6.568;2023-02-27T00:27:57;13.50;;;5.72;;
52618;SDS011;38513;53.234;6.568;2023-02-27T00:30:24;14.93;;;5.90;;
52618;SDS011;38513;53.234;6.568;2023-02-27T00:32:50;14.45;;;5.82;;
52618;SDS011;38513;53.234;6.568;2023-02-27T00:35:17;14.60;;;5.90;;
52618;SDS011;38513;53.234;6.568;2023-02-27T00:37:43;12.25;;;5.35;;
52618;SDS011;38513;53.234;6.568;2023-02-27T00:40:09;12.73;;;4.97;;
52618;SDS011;38513;53.234;6.568;2023-02-27T00:42:36;11.60;;;4.00;;
52618;SDS011;38513;53.234;6.568;2023-02-27T00:45:07;11.65;;;4.22;;
52618;SDS011;38513;53.234;6.568;2023-02-27T00:47:33;12.50;;;4.55;;
52618;SDS011;38513;53.234;6.568;2023-02-27T00:50:00;11.23;;;4.40;;
52618;SDS011;38513;53.234;6.568;2023-02-27T00:52:26;10.43;;;4.07;;
52618;SDS011;38513;53.234;6.568;2023-02-27T00:54:53;10.98;;;3.75;;
52618;SDS011;38513;53.234;6.568;2023-02-27T00:57:20;9.38;;;2.50;;
52618;SDS011;38513;53.234;6.568;2023-02-27T00:59:47;9.65;;;2.65;;
52618;SDS011;38513;53.234;6.568;2023-02-27T01:02:13;10.02;;;2.75;;
52618;SDS011;38513;53.234;6.568;2023-02-27T01:04:39;9.38;;;2.70;;
52618;SDS011;38513;53.234;6.568;2023-02-27T01:07:05;9.82;;;2.80;;
52618;SDS011;38513;53.234;6.568;2023-02-27T01:09:31;10.80;;;2.67;;
52618;SDS011;38513;53.234;6.568;2023-02-27T01:11:57;8.65;;;2.85;;
52618;SDS011;38513;53.234;6.568;2023-02-27T01:14:23;11.02;;;2.40;;
52618;SDS011;38513;53.234;6.568;2023-02-27T01:16:50;9.02;;;2.03;;
52618;SDS011;38513;53.234;6.568;2023-02-27T01:19:16;8.73;;;2.20;;
52618;SDS011;38513;53.234;6.568;2023-02-27T01:21:42;10.37;;;2.73;;
52618;SDS011;38513;53.234;6.568;2023-02-27T01:24:09;8.10;;;2.53;;
52618;SDS011;38513;53.234;6.568;2023-02-27T01:26:36;8.13;;;2.22;;
52618;SDS011;38513;53.234;6.568;2023-02-27T01:29:02;10.35;;;2.30;;
52618;SDS011;38513;53.234;6.568;2023-02-27T01:31:29;7.78;;;2.17;;
52618;SDS011;38513;53.234;6.568;2023-02-27T01:33:55;9.55;;;2.22;;
52618;SDS011;38513;53.234;6.568;2023-02-27T01:36:21;9.98;;;2.30;;
52618;SDS011;38513;53.234;6.568;2023-02-27T01:38:48;8.23;;;2.28;;
52618;SDS011;38513;53.234;6.568;2023-02-27T01:41:14;10.45;;;2.60;;
52618;SDS011;38513;53.234;6.568;2023-02-27T01:43:53;7.35;;;2.28;;
52618;SDS011;38513;53.234;6.568;2023-02-27T01:46:20;8.95;;;2.33;;
52618;SDS011;38513;53.234;6.568;2023-02-27T01:48:46;9.65;;;2.40;;
52618;SDS011;38513;53.234;6.568;2023-02-27T01:51:15;8.60;;;2.40;;
52618;SDS011;38513;53.234;6.568;2023-02-27T01:53:43;8.43;;;2.40;;
52618;SDS011;38513;53.234;6.568;2023-02-27T01:56:15;8.60;;;2.40;;
52618;SDS011;38513;53.234;6.568;2023-02-27T01:58:42;8.97;;;2.60;;
52618;SDS011;38513;53.234;6.568;2023-02-27T02:01:09;7.55;;;2.88;;
52618;SDS011;38513;53.234;6.568;2023-02-27T02:06:02;8.57;;;2.33;;
52618;SDS011;38513;53.234;6.568;2023-02-27T02:08:31;10.52;;;1.98;;
52618;SDS011;38513;53.234;6.568;2023-02-27T02:10:58;9.38;;;2.40;;
52618;SDS011;38513;53.234;6.568;2023-02-27T02:13:24;9.52;;;2.30;;
52618;SDS011;38513;53.234;6.568;2023-02-27T02:16:03;9.25;;;2.20;;
52618;SDS011;38513;53.234;6.568;2023-02-27T02:23:51;7.28;;;2.08;;
52618;SDS011;38513;53.234;6.568;2023-02-27T02:26:30;10.38;;;2.40;;
52618;SDS011;38513;53.234;6.568;2023-02-27T02:31:50;8.95;;;2.30;;
52618;SDS011;38513;53.234;6.568;2023-02-27T02:39:45;9.07;;;2.10;;
52618;SDS011;38513;53.234;6.568;2023-02-27T02:42:24;7.57;;;1.70;;
52618;SDS011;38513;53.234;6.568;2023-02-27T02:52:35;7.35;;;1.70;;
52618;SDS011;38513;53.234;6.568;2023-02-27T02:58:13;7.30;;;1.90;;
52618;SDS011;38513;53.234;6.568;2023-02-27T03:00:21;9.48;;;2.05;;
52618;SDS011;38513;53.234;6.568;2023-02-27T03:02:53;8.82;;;2.05;;
52618;SDS011;38513;53.234;6.568;2023-02-27T03:05:22;9.43;;;1.92;;
52618;SDS011;38513;53.234;6.568;2023-02-27T03:07:51;9.20;;;2.40;;
52618;SDS011;38513;53.234;6.568;2023-02-27T03:10:26;7.32;;;2.00;;
52618;SDS011;38513;53.234;6.568;2023-02-27T03:12:55;8.68;;;2.10;;
52618;SDS011;38513;53.234;6.568;2023-02-27T03:15:26;6.82;;;2.10;;
52618;SDS011;38513;53.234;6.568;2023-02-27T03:17:57;8.80;;;2.00;;
52618;SDS011;38513;53.234;6.568;2023-02-27T03:20:25;7.37;;;1.80;;
52618;SDS011;38513;53.234;6.568;2023-02-27T03:22:56;9.57;;;1.80;;
52618;SDS011;38513;53.234;6.568;2023-02-27T03:25:35;7.75;;;1.90;;
52618;SDS011;38513;53.234;6.568;2023-02-27T03:28:06;7.85;;;2.25;;
52618;SDS011;38513;53.234;6.568;2023-02-27T03:30:35;7.88;;;2.10;;
52618;SDS011;38513;53.234;6.568;2023-02-27T03:33:07;8.63;;;1.83;;
52618;SDS011;38513;53.234;6.568;2023-02-27T03:38:14;9.65;;;2.00;;
52618;SDS011;38513;53.234;6.568;2023-02-27T03:40:46;7.80;;;1.90;;
52618;SDS011;38513;53.234;6.568;2023-02-27T03:43:20;8.50;;;1.77;;
52618;SDS011;38513;53.234;6.568;2023-02-27T03:45:53;8.20;;;1.60;;
52618;SDS011;38513;53.234;6.568;2023-02-27T03:48:21;6.70;;;1.83;;
52618;SDS011;38513;53.234;6.568;2023-02-27T03:50:47;8.52;;;1.80;;
52618;SDS011;38513;53.234;6.568;2023-02-27T03:53:22;7.72;;;2.17;;
52618;SDS011;38513;53.234;6.568;2023-02-27T03:55:50;8.80;;;1.90;;
52618;SDS011;38513;53.234;6.568;2023-02-27T03:58:18;8.97;;;2.03;;
52618;SDS011;38513;53.234;6.568;2023-02-27T04:00:44;8.80;;;2.00;;
52618;SDS011;38513;53.234;6.568;2023-02-27T04:03:10;9.13;;;1.92;;
52618;SDS011;38513;53.234;6.568;2023-02-27T04:05:37;8.48;;;1.80;;
52618;SDS011;38513;53.234;6.568;2023-02-27T04:27:02;10.95;;;2.20;;
52618;SDS011;38513;53.234;6.568;2023-02-27T04:34:31;7.03;;;2.03;;
52618;SDS011;38513;53.234;6.568;2023-02-27T04:37:00;10.30;;;2.15;;
52618;SDS011;38513;53.234;6.568;2023-02-27T04:39:29;10.27;;;2.22;;
52618;SDS011;38513;53.234;6.568;2023-02-27T04:41:58;10.77;;;2.13;;
52618;SDS011;38513;53.234;6.568;2023-02-27T04:44:26;7.63;;;2.10;;
52618;SDS011;38513;53.234;6.568;2023-02-27T04:46:55;8.25;;;2.35;;
52618;SDS011;38513;53.234;6.568;2023-02-27T04:49:30;9.55;;;2.50;;
52618;SDS011;38513;53.234;6.568;2023-02-27T04:52:06;9.68;;;2.55;;
52618;SDS011;38513;53.234;6.568;2023-02-27T04:54:37;9.27;;;2.10;;
52618;SDS011;38513;53.234;6.568;2023-02-27T04:57:09;8.93;;;2.00;;
52618;SDS011;38513;53.234;6.568;2023-02-27T04:59:38;9.68;;;2.15;;
52618;SDS011;38513;53.234;6.568;2023-02-27T05:04:34;9.32;;;2.58;;
52618;SDS011;38513;53.234;6.568;2023-02-27T05:07:00;7.95;;;2.30;;
52618;SDS011;38513;53.234;6.568;2023-02-27T05:12:14;11.63;;;2.40;;
52618;SDS011;38513;53.234;6.568;2023-02-27T05:14:53;9.60;;;2.07;;
52618;SDS011;38513;53.234;6.568;2023-02-27T05:17:21;8.45;;;2.30;;
52618;SDS011;38513;53.234;6.568;2023-02-27T05:19:50;10.23;;;2.40;;
52618;SDS011;38513;53.234;6.568;2023-02-27T05:22:40;9.55;;;2.45;;
52618;SDS011;38513;53.234;6.568;2023-02-27T05:27:41;8.48;;;2.08;;
52618;SDS011;38513;53.234;6.568;2023-02-27T05:40:04;11.45;;;2.25;;
52618;SDS011;38513;53.234;6.568;2023-02-27T05:42:37;13.90;;;2.72;;
52618;SDS011;38513;53.234;6.568;2023-02-27T05:45:09;7.90;;;2.15;;
52618;SDS011;38513;53.234;6.568;2023-02-27T05:47:37;9.60;;;2.35;;
52618;SDS011;38513;53.234;6.568;2023-02-27T05:50:06;9.93;;;2.35;;
52618;SDS011;38513;53.234;6.568;2023-02-27T05:52:33;9.63;;;2.38;;
52618;SDS011;38513;53.234;6.568;2023-02-27T05:55:07;9.27;;;2.58;;
52618;SDS011;38513;53.234;6.568;2023-02-27T06:02:35;7.80;;;2.20;;
52618;SDS011;38513;53.234;6.568;2023-02-27T06:05:02;9.43;;;2.80;;
52618;SDS011;38513;53.234;6.568;2023-02-27T06:07:32;9.95;;;2.45;;
52618;SDS011;38513;53.234;6.568;2023-02-27T06:09:58;8.60;;;2.35;;
52618;SDS011;38513;53.234;6.568;2023-02-27T06:12:25;8.55;;;2.40;;
52618;SDS011;38513;53.234;6.568;2023-02-27T06:14:51;10.88;;;2.42;;
52618;SDS011;38513;53.234;6.568;2023-02-27T06:17:17;8.60;;;2.30;;
52618;SDS011;38513;53.234;6.568;2023-02-27T06:19:43;12.40;;;2.65;;
52618;SDS011;38513;53.234;6.568;2023-02-27T06:22:09;9.98;;;2.40;;
52618;SDS011;38513;53.234;6.568;2023-02-27T06:24:36;9.85;;;2.58;;
52618;SDS011;38513;53.234;6.568;2023-02-27T06:27:03;10.90;;;2.70;;
52618;SDS011;38513;53.234;6.568;2023-02-27T06:29:29;10.70;;;2.85;;
52618;SDS011;38513;53.234;6.568;2023-02-27T06:31:55;12.73;;;3.10;;
52618;SDS011;38513;53.234;6.568;2023-02-27T06:34:21;9.98;;;2.78;;
52618;SDS011;38513;53.234;6.568;2023-02-27T06:36:47;11.05;;;2.78;;
52618;SDS011;38513;53.234;6.568;2023-02-27T06:39:14;10.75;;;2.83;;
52618;SDS011;38513;53.234;6.568;2023-02-27T06:41:40;9.00;;;2.72;;
52618;SDS011;38513;53.234;6.568;2023-02-27T06:44:07;11.77;;;2.90;;
52618;SDS011;38513;53.234;6.568;2023-02-27T06:46:33;12.18;;;3.20;;
52618;SDS011;38513;53.234;6.568;2023-02-27T06:48:59;10.05;;;3.05;;
52618;SDS011;38513;53.234;6.568;2023-02-27T06:51:26;10.73;;;3.00;;
52618;SDS011;38513;53.234;6.568;2023-02-27T06:53:52;10.13;;;3.03;;
52618;SDS011;38513;53.234;6.568;2023-02-27T06:56:18;11.35;;;3.40;;
52618;SDS011;38513;53.234;6.568;2023-02-27T06:58:45;13.90;;;3.78;;
52618;SDS011;38513;53.234;6.568;2023-02-27T07:01:11;14.25;;;3.70;;
52618;SDS011;38513;53.234;6.568;2023-02-27T07:03:37;11.82;;;3.33;;
52618;SDS011;38513;53.234;6.568;2023-02-27T07:06:03;15.77;;;3.35;;
52618;SDS011;38513;53.234;6.568;2023-02-27T07:08:30;14.48;;;3.40;;
52618;SDS011;38513;53.234;6.568;2023-02-27T07:10:56;10.38;;;3.00;;
52618;SDS011;38513;53.234;6.568;2023-02-27T07:13:22;10.40;;;3.05;;
52618;SDS011;38513;53.234;6.568;2023-02-27T07:15:49;12.02;;;3.22;;
52618;SDS011;38513;53.234;6.568;2023-02-27T07:18:16;12.40;;;3.20;;
52618;SDS011;38513;53.234;6.568;2023-02-27T07:20:42;11.47;;;2.80;;
52618;SDS011;38513;53.234;6.568;2023-02-27T07:23:09;13.15;;;3.45;;
52618;SDS011;38513;53.234;6.568;2023-02-27T07:25:35;11.40;;;3.15;;
52618;SDS011;38513;53.234;6.568;2023-02-27T07:28:01;15.35;;;3.20;;
52618;SDS011;38513;53.234;6.568;2023-02-27T07:30:29;10.43;;;2.70;;
52618;SDS011;38513;53.234;6.568;2023-02-27T07:32:55;11.93;;;3.05;;
52618;SDS011;38513;53.234;6.568;2023-02-27T07:35:21;9.95;;;2.80;;
52618;SDS011;38513;53.234;6.568;2023-02-27T07:37:47;11.75;;;2.95;;
52618;SDS011;38513;53.234;6.568;2023-02-27T07:40:13;9.63;;;2.90;;
52618;SDS011;38513;53.234;6.568;2023-02-27T07:42:40;15.70;;;3.25;;
52618;SDS011;38513;53.234;6.568;2023-02-27T07:45:07;11.88;;;3.40;;
52618;SDS011;38513;53.234;6.568;2023-02-27T07:47:34;11.88;;;3.55;;
52618;SDS011;38513;53.234;6.568;2023-02-27T07:50:00;14.20;;;3.58;;
52618;SDS011;38513;53.234;6.568;2023-02-27T07:52:26;14.23;;;5.03;;
52618;SDS011;38513;53.234;6.568;2023-02-27T07:54:52;13.25;;;3.60;;
52618;SDS011;38513;53.234;6.568;2023-02-27T07:57:19;13.70;;;3.83;;
52618;SDS011;38513;53.234;6.568;2023-02-27T07:59:45;13.13;;;4.28;;
52618;SDS011;38513;53.234;6.568;2023-02-27T08:02:12;11.85;;;3.42;;
52618;SDS011;38513;53.234;6.568;2023-02-27T08:04:39;18.25;;;4.32;;
52618;SDS011;38513;53.234;6.568;2023-02-27T08:07:12;11.20;;;3.35;;
52618;SDS011;38513;53.234;6.568;2023-02-27T08:09:38;18.60;;;4.00;;
52618;SDS011;38513;53.234;6.568;2023-02-27T08:12:07;14.80;;;3.72;;
52618;SDS011;38513;53.234;6.568;2023-02-27T08:14:34;14.77;;;4.20;;
52618;SDS011;38513;53.234;6.568;2023-02-27T08:17:00;14.70;;;3.42;;
52618;SDS011;38513;53.234;6.568;2023-02-27T08:19:27;11.77;;;3.38;;
52618;SDS011;38513;53.234;6.568;2023-02-27T08:21:59;12.75;;;3.70;;
52618;SDS011;38513;53.234;6.568;2023-02-27T08:24:25;13.82;;;3.30;;
52618;SDS011;38513;53.234;6.568;2023-02-27T08:26:52;12.85;;;3.20;;
52618;SDS011;38513;53.234;6.568;2023-02-27T08:29:18;11.43;;;3.00;;
52618;SDS011;38513;53.234;6.568;2023-02-27T08:34:37;10.45;;;2.78;;
52618;SDS011;38513;53.234;6.568;2023-02-27T08:37:05;11.60;;;2.95;;
52618;SDS011;38513;53.234;6.568;2023-02-27T08:39:31;10.60;;;3.00;;
52618;SDS011;38513;53.234;6.568;2023-02-27T08:41:57;10.18;;;2.80;;
52618;SDS011;38513;53.234;6.568;2023-02-27T08:44:24;10.88;;;2.80;;
52618;SDS011;38513;53.234;6.568;2023-02-27T08:46:50;10.47;;;2.50;;
52618;SDS011;38513;53.234;6.568;2023-02-27T08:49:16;10.73;;;2.87;;
52618;SDS011;38513;53.234;6.568;2023-02-27T08:51:43;10.85;;;3.08;;
52618;SDS011;38513;53.234;6.568;2023-02-27T08:54:09;10.82;;;3.10;;
52618;SDS011;38513;53.234;6.568;2023-02-27T08:56:36;12.15;;;2.63;;
52618;SDS011;38513;53.234;6.568;2023-02-27T08:59:02;9.27;;;2.92;;
52618;SDS011;38513;53.234;6.568;2023-02-27T09:01:28;10.63;;;2.85;;
52618;SDS011;38513;53.234;6.568;2023-02-27T09:03:58;11.50;;;2.90;;
52618;SDS011;38513;53.234;6.568;2023-02-27T09:06:25;11.27;;;3.30;;
52618;SDS011;38513;53.234;6.568;2023-02-27T09:08:51;16.80;;;4.20;;
52618;SDS011;38513;53.234;6.568;2023-02-27T09:11:18;10.10;;;2.97;;
52618;SDS011;38513;53.234;6.568;2023-02-27T09:13:44;10.27;;;2.70;;
52618;SDS011;38513;53.234;6.568;2023-02-27T09:16:10;9.80;;;2.60;;
52618;SDS011;38513;53.234;6.568;2023-02-27T09:18:37;11.15;;;2.72;;
52618;SDS011;38513;53.234;6.568;2023-02-27T09:21:03;10.02;;;2.63;;
52618;SDS011;38513;53.234;6.568;2023-02-27T09:23:29;11.55;;;2.60;;
52618;SDS011;38513;53.234;6.568;2023-02-27T09:25:56;12.68;;;2.88;;
52618;SDS011;38513;53.234;6.568;2023-02-27T09:28:22;12.68;;;2.47;;
52618;SDS011;38513;53.234;6.568;2023-02-27T09:30:48;7.47;;;1.90;;
52618;SDS011;38513;53.234;6.568;2023-02-27T09:33:14;8.60;;;2.10;;
52618;SDS011;38513;53.234;6.568;2023-02-27T09:35:40;10.07;;;2.15;;
52618;SDS011;38513;53.234;6.568;2023-02-27T09:38:07;9.00;;;1.77;;
52618;SDS011;38513;53.234;6.568;2023-02-27T09:40:39;7.85;;;2.00;;
52618;SDS011;38513;53.234;6.568;2023-02-27T09:43:10;7.93;;;1.67;;
52618;SDS011;38513;53.234;6.568;2023-02-27T09:45:40;8.50;;;1.60;;
52618;SDS011;38513;53.234;6.568;2023-02-27T09:48:20;7.47;;;1.55;;
52618;SDS011;38513;53.234;6.568;2023-02-27T09:50:48;9.02;;;1.63;;
52618;SDS011;38513;53.234;6.568;2023-02-27T09:53:30;6.68;;;1.55;;
52618;SDS011;38513;53.234;6.568;2023-02-27T09:56:01;6.07;;;1.65;;
52618;SDS011;38513;53.234;6.568;2023-02-27T09:58:40;7.43;;;1.45;;
52618;SDS011;38513;53.234;6.568;2023-02-27T10:01:22;8.05;;;1.30;;
52618;SDS011;38513;53.234;6.568;2023-02-27T10:17:11;7.07;;;0.93;;
52618;SDS011;38513;53.234;6.568;2023-02-27T10:19:38;6.47;;;1.20;;
52618;SDS011;38513;53.234;6.568;2023-02-27T10:22:05;5.40;;;1.17;;
52618;SDS011;38513;53.234;6.568;2023-02-27T10:24:37;4.93;;;1.00;;
52618;SDS011;38513;53.234;6.568;2023-02-27T10:27:11;6.65;;;1.17;;
52618;SDS011;38513;53.234;6.568;2023-02-27T10:29:38;5.05;;;0.98;;
52618;SDS011;38513;53.234;6.568;2023-02-27T10:32:19;5.22;;;1.10;;
52618;SDS011;38513;53.234;6.568;2023-02-27T10:34:49;5.90;;;1.10;;
52618;SDS011;38513;53.234;6.568;2023-02-27T10:37:17;5.85;;;1.20;;
52618;SDS011;38513;53.234;6.568;2023-02-27T10:39:50;3.78;;;0.80;;
52618;SDS011;38513;53.234;6.568;2023-02-27T10:42:17;4.78;;;0.85;;
52618;SDS011;38513;53.234;6.568;2023-02-27T10:44:43;4.72;;;1.00;;
52618;SDS011;38513;53.234;6.568;2023-02-27T10:47:16;3.72;;;0.80;;
52618;SDS011;38513;53.234;6.568;2023-02-27T10:49:42;4.85;;;0.93;;
52618;SDS011;38513;53.234;6.568;2023-02-27T10:52:10;6.32;;;0.90;;
52618;SDS011;38513;53.234;6.568;2023-02-27T10:54:37;4.63;;;0.80;;
52618;SDS011;38513;53.234;6.568;2023-02-27T10:59:54;5.05;;;0.85;;
52618;SDS011;38513;53.234;6.568;2023-02-27T11:02:22;5.05;;;0.98;;
52618;SDS011;38513;53.234;6.568;2023-02-27T11:04:49;4.30;;;0.73;;
52618;SDS011;38513;53.234;6.568;2023-02-27T11:07:33;4.00;;;0.70;;
52618;SDS011;38513;53.234;6.568;2023-02-27T11:12:36;9.40;;;1.10;;
52618;SDS011;38513;53.234;6.568;2023-02-27T11:15:25;7.05;;;0.90;;
52618;SDS011;38513;53.234;6.568;2023-02-27T11:17:50;4.97;;;0.70;;
52618;SDS011;38513;53.234;6.568;2023-02-27T11:20:34;3.78;;;0.77;;
52618;SDS011;38513;53.234;6.568;2023-02-27T11:23:02;5.15;;;0.80;;
52618;SDS011;38513;53.234;6.568;2023-02-27T11:25:29;3.78;;;0.80;;
52618;SDS011;38513;53.234;6.568;2023-02-27T11:30:38;3.45;;;0.70;;
52618;SDS011;38513;53.234;6.568;2023-02-27T11:33:11;3.97;;;0.63;;
52618;SDS011;38513;53.234;6.568;2023-02-27T11:35:42;3.55;;;0.70;;
52618;SDS011;38513;53.234;6.568;2023-02-27T11:38:16;3.50;;;0.70;;
52618;SDS011;38513;53.234;6.568;2023-02-27T11:40:53;3.17;;;0.70;;
52618;SDS011;38513;53.234;6.568;2023-02-27T11:45:50;3.45;;;0.63;;
52618;SDS011;38513;53.234;6.568;2023-02-27T11:48:19;3.20;;;0.63;;
52618;SDS011;38513;53.234;6.568;2023-02-27T11:55:45;3.53;;;0.60;;
52618;SDS011;38513;53.234;6.568;2023-02-27T11:58:19;4.05;;;0.63;;
52618;SDS011;38513;53.234;6.568;2023-02-27T12:03:32;3.08;;;0.77;;
52618;SDS011;38513;53.234;6.568;2023-02-27T12:06:02;3.13;;;0.60;;
52618;SDS011;38513;53.234;6.568;2023-02-27T12:08:31;2.70;;;0.68;;
52618;SDS011;38513;53.234;6.568;2023-02-27T12:11:00;2.20;;;0.52;;
52618;SDS011;38513;53.234;6.568;2023-02-27T12:13:35;3.38;;;0.60;;
52618;SDS011;38513;53.234;6.568;2023-02-27T12:21:12;3.55;;;0.73;;
52618;SDS011;38513;53.234;6.568;2023-02-27T12:26:10;3.72;;;0.68;;
52618;SDS011;38513;53.234;6.568;2023-02-27T12:33:51;3.17;;;0.82;;
52618;SDS011;38513;53.234;6.568;2023-02-27T12:36:20;2.95;;;0.70;;
52618;SDS011;38513;53.234;6.568;2023-02-27T12:38:46;2.90;;;0.50;;
52618;SDS011;38513;53.234;6.568;2023-02-27T12:41:19;3.17;;;0.68;;
52618;SDS011;38513;53.234;6.568;2023-02-27T12:43:56;3.30;;;0.77;;
52618;SDS011;38513;53.234;6.568;2023-02-27T12:54:41;4.20;;;0.80;;
52618;SDS011;38513;53.234;6.568;2023-02-27T13:00:17;3.78;;;0.80;;
52618;SDS011;38513;53.234;6.568;2023-02-27T13:10:40;3.58;;;0.80;;
52618;SDS011;38513;53.234;6.568;2023-02-27T13:15:50;3.42;;;0.60;;
52618;SDS011;38513;53.234;6.568;2023-02-27T13:26:22;4.20;;;0.80;;
52618;SDS011;38513;53.234;6.568;2023-02-27T13:28:50;3.83;;;0.60;;
52618;SDS011;38513;53.234;6.568;2023-02-27T13:36:36;2.83;;;0.60;;
52618;SDS011;38513;53.234;6.568;2023-02-27T13:39:03;4.95;;;0.70;;
52618;SDS011;38513;53.234;6.568;2023-02-27T13:41:33;5.00;;;0.77;;
52618;SDS011;38513;53.234;6.568;2023-02-27T13:46:45;4.40;;;0.60;;
52618;SDS011;38513;53.234;6.568;2023-02-27T13:56:46;2.90;;;0.77;;
52618;SDS011;38513;53.234;6.568;2023-02-27T14:01:49;3.57;;;0.70;;
52618;SDS011;38513;53.234;6.568;2023-02-27T14:04:16;4.17;;;0.70;;
52618;SDS011;38513;53.234;6.568;2023-02-27T14:06:43;7.03;;;0.90;;
52618;SDS011;38513;53.234;6.568;2023-02-27T14:09:11;3.58;;;0.60;;
52618;SDS011;38513;53.234;6.568;2023-02-27T14:11:38;3.83;;;0.70;;
52618;SDS011;38513;53.234;6.568;2023-02-27T14:14:05;3.88;;;0.73;;
52618;SDS011;38513;53.234;6.568;2023-02-27T14:21:56;5.65;;;0.85;;
52618;SDS011;38513;53.234;6.568;2023-02-27T14:24:37;4.93;;;0.80;;
52618;SDS011;38513;53.234;6.568;2023-02-27T14:27:18;5.93;;;0.80;;
52618;SDS011;38513;53.234;6.568;2023-02-27T14:29:46;4.35;;;0.90;;
52618;SDS011;38513;53.234;6.568;2023-02-27T14:32:20;3.67;;;0.80;;
52618;SDS011;38513;53.234;6.568;2023-02-27T14:34:47;5.27;;;0.90;;
52618;SDS011;38513;53.234;6.568;2023-02-27T14:37:17;4.72;;;1.00;;
52618;SDS011;38513;53.234;6.568;2023-02-27T14:39:47;3.72;;;0.77;;
52618;SDS011;38513;53.234;6.568;2023-02-27T14:45:00;4.82;;;1.00;;
52618;SDS011;38513;53.234;6.568;2023-02-27T14:47:30;4.10;;;0.87;;
52618;SDS011;38513;53.234;6.568;2023-02-27T14:49:57;6.28;;;0.88;;
52618;SDS011;38513;53.234;6.568;2023-02-27T14:52:25;4.03;;;0.80;;
52618;SDS011;38513;53.234;6.568;2023-02-27T14:54:52;4.90;;;0.95;;
52618;SDS011;38513;53.234;6.568;2023-02-27T14:57:30;5.17;;;0.90;;
52618;SDS011;38513;53.234;6.568;2023-02-27T14:59:56;5.28;;;0.82;;
52618;SDS011;38513;53.234;6.568;2023-02-27T15:02:26;4.88;;;0.88;;
52618;SDS011;38513;53.234;6.568;2023-02-27T15:07:31;4.93;;;1.00;;
52618;SDS011;38513;53.234;6.568;2023-02-27T15:09:59;4.75;;;0.70;;
52618;SDS011;38513;53.234;6.568;2023-02-27T15:12:29;4.22;;;0.65;;
52618;SDS011;38513;53.234;6.568;2023-02-27T15:14:56;3.88;;;0.75;;
52618;SDS011;38513;53.234;6.568;2023-02-27T15:17:27;4.45;;;0.80;;
52618;SDS011;38513;53.234;6.568;2023-02-27T15:19:57;5.17;;;0.80;;
52618;SDS011;38513;53.234;6.568;2023-02-27T15:22:26;4.30;;;0.85;;
52618;SDS011;38513;53.234;6.568;2023-02-27T15:24:55;4.93;;;0.90;;
52618;SDS011;38513;53.234;6.568;2023-02-27T15:27:25;4.25;;;1.05;;
52618;SDS011;38513;53.234;6.568;2023-02-27T15:30:01;3.85;;;0.80;;
52618;SDS011;38513;53.234;6.568;2023-02-27T15:32:32;5.20;;;1.13;;
52618;SDS011;38513;53.234;6.568;2023-02-27T15:35:00;3.85;;;0.60;;
52618;SDS011;38513;53.234;6.568;2023-02-27T15:37:28;4.68;;;0.70;;
52618;SDS011;38513;53.234;6.568;2023-02-27T15:39:55;3.73;;;0.80;;
52618;SDS011;38513;53.234;6.568;2023-02-27T15:42:27;5.13;;;1.00;;
52618;SDS011;38513;53.234;6.568;2023-02-27T15:44:54;5.35;;;0.90;;
52618;SDS011;38513;53.234;6.568;2023-02-27T15:47:24;4.43;;;0.98;;
52618;SDS011;38513;53.234;6.568;2023-02-27T15:49:57;5.18;;;0.80;;
52618;SDS011;38513;53.234;6.568;2023-02-27T15:52:25;5.68;;;0.80;;
52618;SDS011;38513;53.234;6.568;2023-02-27T15:55:01;4.75;;;0.90;;
52618;SDS011;38513;53.234;6.568;2023-02-27T15:57:28;4.27;;;0.90;;
52618;SDS011;38513;53.234;6.568;2023-02-27T15:59:55;5.85;;;1.00;;
52618;SDS011;38513;53.234;6.568;2023-02-27T16:02:33;6.88;;;1.02;;
52618;SDS011;38513;53.234;6.568;2023-02-27T16:05:01;6.68;;;1.23;;
52618;SDS011;38513;53.234;6.568;2023-02-27T16:07:28;4.00;;;0.80;;
52618;SDS011;38513;53.234;6.568;2023-02-27T16:10:04;4.03;;;0.80;;
52618;SDS011;38513;53.234;6.568;2023-02-27T16:12:35;4.78;;;0.82;;
52618;SDS011;38513;53.234;6.568;2023-02-27T16:17:54;5.17;;;1.20;;
52618;SDS011;38513;53.234;6.568;2023-02-27T16:20:29;4.55;;;1.00;;
52618;SDS011;38513;53.234;6.568;2023-02-27T16:25:57;7.00;;;1.30;;
52618;SDS011;38513;53.234;6.568;2023-02-27T16:28:27;6.78;;;1.17;;
52618;SDS011;38513;53.234;6.568;2023-02-27T16:30:57;5.68;;;1.00;;
52618;SDS011;38513;53.234;6.568;2023-02-27T16:33:23;6.30;;;1.10;;
52618;SDS011;38513;53.234;6.568;2023-02-27T16:36:02;6.95;;;1.10;;
52618;SDS011;38513;53.234;6.568;2023-02-27T16:38:30;6.67;;;1.27;;
52618;SDS011;38513;53.234;6.568;2023-02-27T16:40:57;6.10;;;1.20;;
52618;SDS011;38513;53.234;6.568;2023-02-27T16:43:23;5.15;;;1.10;;
52618;SDS011;38513;53.234;6.568;2023-02-27T16:45:49;7.47;;;1.58;;
52618;SDS011;38513;53.234;6.568;2023-02-27T16:48:16;5.18;;;1.10;;
52618;SDS011;38513;53.234;6.568;2023-02-27T16:50:48;5.07;;;1.33;;
52618;SDS011;38513;53.234;6.568;2023-02-27T16:53:23;6.78;;;1.38;;
52618;SDS011;38513;53.234;6.568;2023-02-27T16:55:49;6.40;;;1.30;;
52618;SDS011;38513;53.234;6.568;2023-02-27T16:58:15;6.78;;;1.40;;
52618;SDS011;38513;53.234;6.568;2023-02-27T17:00:42;7.15;;;1.45;;
52618;SDS011;38513;53.234;6.568;2023-02-27T17:03:09;6.40;;;1.30;;
52618;SDS011;38513;53.234;6.568;2023-02-27T17:05:35;7.72;;;1.40;;
52618;SDS011;38513;53.234;6.568;2023-02-27T17:08:01;6.55;;;1.23;;
52618;SDS011;38513;53.234;6.568;2023-02-27T17:10:27;7.38;;;1.40;;
52618;SDS011;38513;53.234;6.568;2023-02-27T17:12:53;7.55;;;1.60;;
52618;SDS011;38513;53.234;6.568;2023-02-27T17:15:21;7.57;;;1.57;;
52618;SDS011;38513;53.234;6.568;2023-02-27T17:17:47;7.15;;;1.50;;
52618;SDS011;38513;53.234;6.568;2023-02-27T17:20:14;7.85;;;1.58;;
52618;SDS011;38513;53.234;6.568;2023-02-27T17:22:41;9.90;;;1.92;;
52618;SDS011;38513;53.234;6.568;2023-02-27T17:25:07;7.97;;;1.53;;
52618;SDS011;38513;53.234;6.568;2023-02-27T17:27:34;8.90;;;1.70;;
52618;SDS011;38513;53.234;6.568;2023-02-27T17:30:01;8.13;;;1.60;;
52618;SDS011;38513;53.234;6.568;2023-02-27T17:32:27;8.00;;;1.77;;
52618;SDS011;38513;53.234;6.568;2023-02-27T17:34:54;7.95;;;1.80;;
52618;SDS011;38513;53.234;6.568;2023-02-27T17:37:20;6.57;;;1.70;;
52618;SDS011;38513;53.234;6.568;2023-02-27T17:39:46;6.80;;;1.60;;
52618;SDS011;38513;53.234;6.568;2023-02-27T17:42:15;9.67;;;2.13;;
52618;SDS011;38513;53.234;6.568;2023-02-27T17:44:45;7.95;;;1.80;;
52618;SDS011;38513;53.234;6.568;2023-02-27T17:47:12;8.77;;;1.67;;
52618;SDS011;38513;53.234;6.568;2023-02-27T17:49:38;6.45;;;1.50;;
52618;SDS011;38513;53.234;6.568;2023-02-27T17:52:04;9.60;;;1.88;;
52618;SDS011;38513;53.234;6.568;2023-02-27T17:54:34;7.70;;;1.60;;
52618;SDS011;38513;53.234;6.568;2023-02-27T17:57:00;6.80;;;1.60;;
52618;SDS011;38513;53.234;6.568;2023-02-27T17:59:31;6.85;;;1.73;;